Flight Track Log - Related Links

Times and Time Zones

All times are in EDT time to prevent confusion due to time zone crossing. See the UPS2948 flight status page for this flight to view local times or setup timezone preferences in your user account.

Time Position Orientation Groundspeed Altitude Reporting Facility
EDT Latitude Longitude Course Direction KTS MPH feet Rate Location/Type
Mon 04:21:27 PM 38.1700 -85.7430 142° Southeast 161 185 300  Level FlightAware ADS-B
Mon 04:21:52 PM 38.1500 -85.7370 167° South 162 186 1,600 2,291 Climbing FlightAware ADS-B
Mon 04:22:22 PM 38.1240 -85.7350 177° South 204 235 2,400 1,800 Climbing FlightAware ADS-B
Mon 04:22:52 PM 38.0950 -85.7360 182° South 222 255 3,400 1,950 Climbing FlightAware ADS-B
Mon 04:23:02 PM 38.0850 -85.7410 201° Southwest 228 262 3,700 1,920 Climbing FlightAware ADS-B
Mon 04:23:17 PM 38.0750 -85.7560 230° Southwest 240 276 4,200 1,920 Climbing FlightAware ADS-B
Mon 04:23:27 PM 38.0730 -85.7690 259° West 247 284 4,500 2,133 Climbing FlightAware ADS-B
Mon 04:24:02 PM 38.0770 -85.8230 275° West 264 304 5,800 2,300 Climbing FlightAware ADS-B
Mon 04:24:27 PM 38.0770 -85.8610 270° West 267 307 6,800 2,073 Climbing FlightAware ADS-B
Mon 04:24:57 PM 38.0750 -85.9100 267° West 282 325 7,700 982 Climbing FlightAware ADS-B
Mon 04:25:22 PM 38.0730 -85.9530 267° West 277 319 7,700 982 Level FlightAware ADS-B
Mon 04:25:52 PM 38.0690 -85.9990 264° West 278 320 8,600 2,073 Climbing FlightAware ADS-B
Mon 04:26:17 PM 38.0660 -86.0390 265° West 285 328 9,600 1,971 Climbing FlightAware ADS-B
Mon 04:27:02 PM 38.0620 -86.1200 266° West 316 364 10,900 1,906 Climbing FlightAware ADS-B
Mon 04:27:42 PM 38.0570 -86.1980 265° West 336 387 12,300 2,259 Climbing FlightAware ADS-B
Mon 04:28:27 PM 38.0520 -86.2820 266° West 343 395 14,100 2,471 Climbing FlightAware ADS-B
Mon 04:29:07 PM 38.0460 -86.3670 265° West 351 404 15,800 2,400 Climbing FlightAware ADS-B
Mon 04:29:42 PM 38.0400 -86.4360 264° West 357 411 17,100 2,250 Climbing FlightAware ADS-B
Mon 04:30:27 PM 38.0330 -86.5330 265° West 364 419 18,800 2,118 Climbing FlightAware ADS-B
Mon 04:31:07 PM 38.0260 -86.6210 264° West 372 428 20,100 1,800 Climbing FlightAware ADS-B
Mon 04:31:57 PM 38.0170 -86.7300 264° West 386 444 21,500 1,768 Climbing FlightAware ADS-B
Mon 04:32:42 PM 38.0090 -86.8340 264° West 391 450 22,900 1,800 Climbing FlightAware ADS-B
Mon 04:33:17 PM 38.0170 -86.9160 277° West 395 455 23,900 1,725 Climbing FlightAware ADS-B
Mon 04:34:02 PM 38.0360 -87.0170 283° West 398 458 25,200 1,733 Climbing FlightAware ADS-B
Mon 04:34:47 PM 38.0560 -87.1190 284° West 401 461 26,500 1,624 Climbing FlightAware ADS-B
Mon 04:35:27 PM 38.0740 -87.2140 284° West 405 466 27,500 1,425 Climbing FlightAware ADS-B
Mon 04:36:07 PM 38.0910 -87.3070 283° West 410 472 28,400 1,341 Climbing FlightAware ADS-B
Mon 04:36:52 PM 38.1100 -87.4110 283° West 415 478 29,400 1,482 Climbing FlightAware ADS-B
Mon 04:37:32 PM 38.1280 -87.5080 283° West 417 480 30,500 1,553 Climbing FlightAware ADS-B
Mon 04:38:17 PM 38.1480 -87.6140 284° West 418 481 31,600 988 Climbing FlightAware ADS-B
Mon 04:38:57 PM 38.1650 -87.7100 283° West 421 484 31,900 282 Climbing FlightAware ADS-B
Mon 04:39:42 PM 38.1860 -87.8220 283° West 430 495 32,000 71 Climbing FlightAware ADS-B
Mon 04:40:22 PM 38.2040 -87.9220 283° West 433 498 32,000  Level FlightAware ADS-B
Mon 04:41:07 PM 38.2240 -88.0350 283° West 430 495 32,000  Level FlightAware ADS-B
Mon 04:41:47 PM 38.2410 -88.1300 283° West 428 493 32,000  Level FlightAware ADS-B
Mon 04:42:27 PM 38.2590 -88.2310 283° West 427 491 32,000  Level FlightAware ADS-B
Mon 04:43:12 PM 38.2790 -88.3390 283° West 426 490 32,000  Level FlightAware ADS-B
Mon 04:43:52 PM 38.2960 -88.4370 282° West 424 488 32,000  Level FlightAware ADS-B
Mon 04:44:32 PM 38.3130 -88.5340 283° West 423 487 32,000  Level FlightAware ADS-B
Mon 04:45:17 PM 38.3320 -88.6430 283° West 422 486 32,000  Level FlightAware ADS-B
Mon 04:45:57 PM 38.3490 -88.7400 283° West 422 486 32,000  Level FlightAware ADS-B
Mon 04:46:42 PM 38.3680 -88.8500 282° West 421 484 32,000  Level FlightAware ADS-B
Mon 04:47:22 PM 38.3850 -88.9480 283° West 420 483 32,000  Level FlightAware ADS-B
Mon 04:48:07 PM 38.4040 -89.0580 282° West 420 483 32,000  Level FlightAware ADS-B
Mon 04:48:47 PM 38.4200 -89.1480 283° West 419 482 32,000  Level FlightAware ADS-B
Mon 04:49:27 PM 38.4500 -89.2450 292° West 420 483 32,000  Level FlightAware ADS-B
Mon 04:50:12 PM 38.4860 -89.3520 293° West 419 482 32,000  Level FlightAware ADS-B
Mon 04:50:52 PM 38.5140 -89.4340 294° West 419 482 32,000  Level FlightAware ADS-B
Mon 04:51:27 PM 38.5420 -89.5170 293° West 417 480 32,000  Level FlightAware ADS-B
Mon 04:52:32 PM 38.5920 -89.6660 293° West 416 479 32,000  Level FlightAware ADS-B
Mon 04:53:27 PM 38.6330 -89.7890 293° West 416 479 32,000  Level FlightAware ADS-B
Mon 04:54:07 PM 38.6630 -89.8800 293° West 417 480 32,000  Level FlightAware ADS-B
Mon 04:54:52 PM 38.6970 -89.9840 293° West 418 481 32,000  Level FlightAware ADS-B
Mon 04:55:27 PM 38.7230 -90.0620 293° West 418 481 32,000  Level FlightAware ADS-B
Mon 04:56:22 PM 38.7660 -90.1910 293° West 419 482 32,000  Level FlightAware ADS-B
Mon 04:59:12 PM 38.8740 -90.5850 290° West 429 494 32,000 210 Level FlightAware ADS-B
Mon 04:59:42 PM 38.8830 -90.6630 278° West 420 483 32,700 348 Climbing FlightAware ADS-B
Mon 05:04:57 PM 38.9720 -91.4290 279° West 411 473 34,000 214 Climbing FlightAware ADS-B
Mon 05:05:47 PM 38.9850 -91.5470 278° West 410 472 34,000 338 Level FlightAware ADS-B
Mon 05:10:52 PM 39.0630 -92.2780 278° West 417 480 36,000 343 Climbing FlightAware ADS-B
Mon 05:11:37 PM 39.0770 -92.4040 278° West 423 487 36,000  Level FlightAware ADS-B
Mon 05:12:27 PM 39.0880 -92.5190 277° West 424 488 36,000  Level FlightAware ADS-B
Mon 05:13:27 PM 39.1040 -92.6730 278° West 420 483 36,000 -60 Level FlightAware ADS-B
Mon 05:14:07 PM 39.1140 -92.7680 278° West 411 473 35,900  Descending FlightAware ADS-B
Mon 05:14:52 PM 39.1250 -92.8790 277° West 404 465 36,000 67 Climbing FlightAware ADS-B
Mon 05:15:37 PM 39.1360 -92.9900 277° West 402 463 36,000  Level FlightAware ADS-B
Mon 05:16:17 PM 39.1450 -93.0890 277° West 401 461 36,000  Level FlightAware ADS-B
Mon 05:16:57 PM 39.1540 -93.1820 277° West 400 460 36,000  Level FlightAware ADS-B
Mon 05:17:42 PM 39.1640 -93.2870 277° West 399 459 36,000  Level FlightAware ADS-B
Mon 05:18:22 PM 39.1730 -93.3810 277° West 399 459 36,000  Level FlightAware ADS-B
Mon 05:19:07 PM 39.1840 -93.4920 277° West 400 460 36,000  Level FlightAware ADS-B
Mon 05:19:47 PM 39.1920 -93.5840 276° West 400 460 36,000  Level FlightAware ADS-B
Mon 05:20:27 PM 39.2010 -93.6820 277° West 400 460 36,000  Level FlightAware ADS-B
Mon 05:21:12 PM 39.2110 -93.7860 277° West 397 457 36,000  Level FlightAware ADS-B
Mon 05:21:52 PM 39.2190 -93.8800 276° West 395 455 36,000  Level FlightAware ADS-B
Mon 05:22:32 PM 39.2270 -93.9730 276° West 393 452 36,000  Level FlightAware ADS-B
Mon 05:23:17 PM 39.2370 -94.0800 277° West 392 451 36,000  Level FlightAware ADS-B
Mon 05:23:57 PM 39.2450 -94.1740 276° West 393 452 36,000  Level FlightAware ADS-B
Mon 05:24:42 PM 39.2540 -94.2780 276° West 391 450 36,000  Level FlightAware ADS-B
Mon 05:25:22 PM 39.2620 -94.3680 277° West 392 451 36,000  Level FlightAware ADS-B
Mon 05:26:02 PM 39.2700 -94.4630 276° West 393 452 36,000  Level FlightAware ADS-B
Mon 05:26:47 PM 39.2800 -94.5690 277° West 393 452 36,000  Level FlightAware ADS-B
Mon 05:29:57 PM 39.3170 -95.0100 276° West 388 447 36,000  Level FlightAware ADS-B
Mon 05:30:37 PM 39.3250 -95.1010 277° West 389 448 36,000  Level FlightAware ADS-B
Mon 05:31:47 PM 39.3370 -95.2650 275° West 387 445 36,000  Level FlightAware ADS-B
Mon 05:32:27 PM 39.3440 -95.3530 276° West 387 445 36,000  Level FlightAware ADS-B
Mon 05:33:07 PM 39.3510 -95.4490 275° West 387 445 36,000  Level FlightAware ADS-B
Mon 05:33:47 PM 39.3480 -95.4100 96° East 388 447 36,000  Level FlightAware ADS-B
Mon 05:34:32 PM 39.3570 -95.5190 276° West 388 447 36,000  Level FlightAware ADS-B
Mon 05:35:12 PM 39.3650 -95.6250 276° West 389 448 36,000  Level FlightAware ADS-B
Mon 05:35:52 PM 39.3730 -95.7400 275° West 389 448 36,000  Level FlightAware ADS-B
Mon 05:36:37 PM 39.3810 -95.8470 276° West 389 448 36,000  Level FlightAware ADS-B
Mon 05:37:17 PM 39.3880 -95.9380 276° West 389 448 36,000  Level FlightAware ADS-B
Mon 05:38:07 PM 39.3950 -96.0410 275° West 389 448 36,000  Level FlightAware ADS-B
Mon 05:38:57 PM 39.4060 -96.1970 275° West 389 448 36,000  Level FlightAware ADS-B
Mon 05:39:37 PM 39.4130 -96.2830 276° West 387 445 36,000  Level FlightAware ADS-B
Mon 05:40:22 PM 39.4210 -96.3900 276° West 384 442 36,000  Level FlightAware ADS-B
Mon 05:41:02 PM 39.4270 -96.4780 275° West 382 440 36,000  Level FlightAware ADS-B
Mon 05:41:42 PM 39.4330 -96.5540 276° West 381 438 36,000  Level FlightAware ADS-B
Mon 05:42:27 PM 39.4410 -96.6680 275° West 379 436 36,000  Level FlightAware ADS-B
Mon 05:43:07 PM 39.4460 -96.7450 275° West 378 435 36,000  Level FlightAware ADS-B
Mon 05:45:27 PM 39.4660 -97.0360 275° West 377 434 36,000  Level FlightAware ADS-B
Mon 05:46:17 PM 39.4730 -97.1630 274° West 36,000  Level FlightAware ADS-B
Mon 05:47:24 PM 39.4858 -97.3858 274° West 382 440 36,000  Level Kansas City Center
Mon 05:48:26 PM 39.4950 -97.5361 275° West 379 436 36,000  Level Kansas City Center
Mon 05:49:30 PM 39.5031 -97.6572 275° West 374 430 36,000  Level Kansas City Center
Mon 05:50:30 PM 39.5097 -97.7933 274° West 376 433 36,000 -50 Level Kansas City Center
Mon 05:51:31 PM 39.5169 -97.9319 274° West 377 434 35,900  Descending Kansas City Center
Mon 05:52:34 PM 39.5236 -98.0664 274° West 376 433 36,000 61 Climbing Kansas City Center
Mon 05:53:10 PM 39.5269 -98.1478 273° West 380 437 36,000  Level Denver Center
Mon 05:54:12 PM 39.5358 -98.3094 274° West 377 434 36,000  Level Denver Center
Mon 05:55:14 PM 39.5425 -98.4442 274° West 375 432 36,000  Level Denver Center
Mon 05:56:15 PM 39.5483 -98.5811 273° West 378 435 36,000  Level Denver Center
Mon 05:57:17 PM 39.5556 -98.7181 274° West 381 438 36,000  Level Denver Center
Mon 05:58:19 PM 39.5622 -98.8542 274° West 378 435 36,000  Level Denver Center
Mon 05:59:21 PM 39.5686 -98.9892 274° West 377 434 36,000  Level Denver Center
Mon 06:00:22 PM 39.5761 -99.1508 273° West 375 432 36,000  Level Denver Center
Mon 06:01:24 PM 39.5814 -99.2847 273° West 373 429 36,000  Level Denver Center
Mon 06:02:26 PM 39.5875 -99.4192 273° West 372 428 36,000  Level Denver Center
Mon 06:03:27 PM 39.5917 -99.5539 272° West 372 428 36,000  Level Denver Center
Mon 06:04:29 PM 39.5986 -99.6889 274° West 374 430 36,000  Level Denver Center
Mon 06:05:31 PM 39.6022 -99.8225 272° West 372 428 36,000  Level Denver Center
Mon 06:06:33 PM 39.6081 -99.9739 273° West 368 423 36,000  Level Denver Center
Mon 06:07:34 PM 39.6136 -100.1008 273° West 367 422 36,000  Level Denver Center
Mon 06:08:36 PM 39.6167 -100.2072 272° West 369 425 36,000  Level Denver Center
Mon 06:09:50 PM 39.6231 -100.3733 273° West 362 417 36,000  Level Denver Center
Mon 06:15:04 PM 39.6479 -101.0900 273° West 361 415 36,000  Level FlightAware ADS-B
Mon 06:15:35 PM 39.6498 -101.1580 272° West 361 415 36,000  Level FlightAware ADS-B
Mon 06:16:05 PM 39.6517 -101.2240 272° West 361 415 36,000  Level FlightAware ADS-B
Mon 06:16:36 PM 39.6534 -101.2890 272° West 361 415 36,000  Level FlightAware ADS-B
Mon 06:17:06 PM 39.6551 -101.3560 272° West 361 415 36,000  Level FlightAware ADS-B
Mon 06:17:37 PM 39.6568 -101.4230 272° West 360 414 36,000  Level FlightAware ADS-B
Mon 06:18:10 PM 39.6585 -101.4940 272° West 360 414 36,000  Level FlightAware ADS-B
Mon 06:18:41 PM 39.6601 -101.5600 272° West 362 417 36,000 -98 Level FlightAware ADS-B
Mon 06:19:11 PM 39.6617 -101.6280 272° West 362 417 35,900  Descending FlightAware ADS-B
Mon 06:19:42 PM 39.6632 -101.6940 272° West 360 414 36,000 98 Climbing FlightAware ADS-B
Mon 06:20:12 PM 39.6646 -101.7590 272° West 359 413 36,000  Level FlightAware ADS-B
Mon 06:20:45 PM 39.6661 -101.8300 272° West 359 413 36,000  Level FlightAware ADS-B
Mon 06:21:15 PM 39.6674 -101.8950 272° West 359 413 36,000  Level FlightAware ADS-B
Mon 06:21:45 PM 39.6688 -101.9610 272° West 358 412 36,000  Level FlightAware ADS-B
Mon 06:22:19 PM 39.6702 -102.0350 271° West 359 413 36,000  Level FlightAware ADS-B
Mon 06:22:49 PM 39.6716 -102.1000 272° West 359 413 36,000  Level FlightAware ADS-B
Mon 06:23:20 PM 39.6730 -102.1650 272° West 358 412 36,000  Level FlightAware ADS-B
Mon 06:23:50 PM 39.6743 -102.2310 271° West 357 411 36,000  Level FlightAware ADS-B
Mon 06:24:20 PM 39.6755 -102.2960 271° West 357 411 36,000  Level FlightAware ADS-B
Mon 06:24:51 PM 39.6767 -102.3620 271° West 358 412 36,000  Level FlightAware ADS-B
Mon 06:25:22 PM 39.6779 -102.4280 271° West 359 413 36,000  Level FlightAware ADS-B
Mon 06:25:52 PM 39.6790 -102.4940 271° West 360 414 36,000  Level FlightAware ADS-B
Mon 06:26:22 PM 39.6801 -102.5600 271° West 362 417 36,000  Level FlightAware ADS-B
Mon 06:26:53 PM 39.6811 -102.6260 271° West 363 418 36,000  Level FlightAware ADS-B
Mon 06:27:23 PM 39.6822 -102.6930 271° West 363 418 36,000  Level FlightAware ADS-B
Mon 06:27:53 PM 39.6833 -102.7590 271° West 362 417 36,000  Level FlightAware ADS-B
Mon 06:28:24 PM 39.6842 -102.8250 271° West 362 417 36,000  Level FlightAware ADS-B
Mon 06:28:55 PM 39.6852 -102.8930 271° West 359 413 36,000  Level FlightAware ADS-B
Mon 06:29:25 PM 39.6861 -102.9580 271° West 359 413 36,000  Level FlightAware ADS-B
Mon 06:29:56 PM 39.6870 -103.0240 271° West 359 413 36,000  Level FlightAware ADS-B
Mon 06:30:26 PM 39.6877 -103.0890 271° West 358 412 36,000  Level FlightAware ADS-B
Mon 06:30:57 PM 39.6884 -103.1550 271° West 358 412 36,000  Level FlightAware ADS-B
Mon 06:31:27 PM 39.6891 -103.2200 271° West 358 412 36,000  Level FlightAware ADS-B
Mon 06:31:57 PM 39.6896 -103.2850 271° West 358 412 36,000  Level FlightAware ADS-B
Mon 06:32:27 PM 39.6902 -103.3500 271° West 358 412 36,000  Level FlightAware ADS-B
Mon 06:32:58 PM 39.6908 -103.4160 271° West 357 411 36,000  Level FlightAware ADS-B
Mon 06:33:28 PM 39.6914 -103.4810 271° West 358 412 36,000  Level FlightAware ADS-B
Mon 06:33:58 PM 39.6918 -103.5460 270° West 359 413 36,000  Level FlightAware ADS-B
Mon 06:34:29 PM 39.6918 -103.6110 270° West 359 413 36,000  Level FlightAware ADS-B
Mon 06:35:00 PM 39.6915 -103.6790 270° West 362 417 36,000  Level FlightAware ADS-B
Mon 06:35:32 PM 39.6912 -103.7470 270° West 363 418 36,000  Level FlightAware ADS-B
Mon 06:36:02 PM 39.6911 -103.8140 270° West 364 419 36,000  Level FlightAware ADS-B
Mon 06:36:33 PM 39.6910 -103.8810 270° West 363 418 36,000  Level FlightAware ADS-B
Mon 06:37:03 PM 39.6909 -103.9470 270° West 363 418 36,000  Level FlightAware ADS-B
Mon 06:37:34 PM 39.6907 -104.0140 270° West 362 417 36,000  Level FlightAware ADS-B
Mon 06:38:03 PM 39.6905 -104.0790 270° West 362 417 36,000  Level FlightAware ADS-B
Mon 06:38:34 PM 39.6904 -104.1440 270° West 361 415 36,000  Level FlightAware ADS-B
Mon 06:39:04 PM 39.6903 -104.2100 270° West 361 415 36,000  Level FlightAware ADS-B
Mon 06:39:35 PM 39.6901 -104.2780 270° West 362 417 36,000  Level FlightAware ADS-B
Mon 06:40:01 PM 39.6899 -104.3350 270° West 361 415 36,000  Level FlightAware ADS-B
Mon 06:40:32 PM 39.6897 -104.4010 270° West 360 414 36,000  Level FlightAware ADS-B
Mon 06:41:03 PM 39.6895 -104.4680 270° West 359 413 36,000  Level FlightAware ADS-B
Mon 06:41:33 PM 39.6896 -104.5330 270° West 359 413 36,000  Level FlightAware ADS-B
Mon 06:42:03 PM 39.6895 -104.5980 270° West 358 412 36,000  Level FlightAware ADS-B
Mon 06:42:35 PM 39.6890 -104.6670 269° West 358 412 36,000  Level FlightAware ADS-B
Mon 06:43:05 PM 39.6878 -104.7320 269° West 360 414 36,000  Level FlightAware ADS-B
Mon 06:43:37 PM 39.6866 -104.8000 269° West 358 412 36,000  Level FlightAware ADS-B
Mon 06:44:07 PM 39.6855 -104.8660 269° West 357 411 36,000  Level FlightAware ADS-B
Mon 06:44:37 PM 39.6843 -104.9300 269° West 356 410 36,000  Level FlightAware ADS-B
Mon 06:45:09 PM 39.6831 -104.9990 269° West 356 410 36,000 -94 Level FlightAware ADS-B
Mon 06:45:41 PM 39.6819 -105.0670 269° West 356 410 35,900  Descending FlightAware ADS-B
Mon 06:46:12 PM 39.6810 -105.1310 269° West 352 405 36,000 162 Climbing FlightAware ADS-B
Mon 06:46:18 PM 39.6804 -105.1460 267° West 352 405 36,000  Level FlightAware ADS-B
Mon 06:46:48 PM 39.6791 -105.2100 269° West 352 405 36,000  Level FlightAware ADS-B
Mon 06:47:19 PM 39.6777 -105.2760 268° West 352 405 36,000  Level FlightAware ADS-B
Mon 06:47:57 PM 39.6760 -105.3570 268° West 354 407 36,000  Level FlightAware ADS-B
Mon 06:48:28 PM 39.6746 -105.4210 268° West 354 407 36,000  Level FlightAware ADS-B
Mon 06:48:58 PM 39.6732 -105.4860 268° West 354 407 36,000  Level FlightAware ADS-B
Mon 06:49:30 PM 39.6716 -105.5550 268° West 354 407 36,000  Level FlightAware ADS-B
Mon 06:50:01 PM 39.6700 -105.6200 268° West 355 409 36,000  Level FlightAware ADS-B
Mon 06:50:31 PM 39.6684 -105.6850 268° West 352 405 36,000  Level FlightAware ADS-B
Mon 06:51:01 PM 39.6668 -105.7490 268° West 353 406 36,000  Level FlightAware ADS-B
Mon 06:51:31 PM 39.6651 -105.8130 268° West 354 407 36,000  Level FlightAware ADS-B
Mon 06:52:02 PM 39.6634 -105.8780 268° West 353 406 36,000  Level FlightAware ADS-B
Mon 06:52:32 PM 39.6617 -105.9420 268° West 352 405 36,000  Level FlightAware ADS-B
Mon 06:53:02 PM 39.6599 -106.0060 268° West 354 407 36,000  Level FlightAware ADS-B
Mon 06:53:32 PM 39.6581 -106.0700 268° West 356 410 36,000  Level FlightAware ADS-B
Mon 06:54:03 PM 39.6563 -106.1360 268° West 359 413 36,000 -98 Level FlightAware ADS-B
Mon 06:54:33 PM 39.6545 -106.2010 268° West 359 413 35,900  Descending FlightAware ADS-B
Mon 06:55:03 PM 39.6525 -106.2660 268° West 358 412 36,000 98 Climbing FlightAware ADS-B
Mon 06:55:34 PM 39.6506 -106.3310 268° West 358 412 36,000  Level FlightAware ADS-B
Mon 06:56:05 PM 39.6485 -106.3990 268° West 359 413 36,000  Level FlightAware ADS-B
Mon 06:56:35 PM 39.6466 -106.4640 268° West 359 413 36,000  Level FlightAware ADS-B
Mon 06:57:05 PM 39.6450 -106.5290 268° West 360 414 36,000  Level FlightAware ADS-B
Mon 06:57:35 PM 39.6432 -106.5940 268° West 359 413 36,000  Level FlightAware ADS-B
Mon 06:58:06 PM 39.6412 -106.6610 268° West 359 413 36,000  Level FlightAware ADS-B
Mon 06:58:37 PM 39.6393 -106.7270 268° West 361 415 36,000  Level FlightAware ADS-B
Mon 06:59:07 PM 39.6373 -106.7920 268° West 362 417 36,000  Level FlightAware ADS-B
Mon 06:59:32 PM 39.6356 -106.8460 268° West 361 415 36,000  Level FlightAware ADS-B
Mon 07:00:02 PM 39.6334 -106.9120 268° West 361 415 36,000  Level FlightAware ADS-B
Mon 07:00:38 PM 39.6307 -106.9900 267° West 360 414 36,000  Level FlightAware ADS-B
Mon 07:01:09 PM 39.6283 -107.0580 267° West 362 417 36,000  Level FlightAware ADS-B
Mon 07:01:40 PM 39.6259 -107.1250 267° West 362 417 36,000  Level FlightAware ADS-B
Mon 07:02:11 PM 39.6235 -107.1910 267° West 360 414 36,000  Level FlightAware ADS-B
Mon 07:02:41 PM 39.6209 -107.2570 267° West 360 414 36,000  Level FlightAware ADS-B
Mon 07:03:37 PM 39.6158 -107.3653 267° West 361 415 36,000  Level Denver Center
Mon 07:04:38 PM 39.6111 -107.4886 267° West 359 413 36,000  Level Denver Center
Mon 07:05:40 PM 39.6053 -107.6303 267° West 354 407 36,000  Level Denver Center
Mon 07:06:41 PM 39.6006 -107.7525 267° West 353 406 36,000  Level Denver Center
Mon 07:07:43 PM 39.5944 -107.8944 267° West 354 407 36,000  Level Denver Center
Mon 07:08:44 PM 39.5883 -108.0158 266° West 352 405 36,000  Level Denver Center
Mon 07:09:46 PM 39.5828 -108.1372 267° West 354 407 36,000  Level Denver Center
Mon 07:10:47 PM 39.5764 -108.2822 267° West 361 415 36,000  Level Denver Center
Mon 07:11:48 PM 39.5711 -108.3844 266° West 357 411 36,000 -49 Level Denver Center
Mon 07:12:50 PM 39.5633 -108.5472 267° West 354 407 35,900  Descending Denver Center
Mon 07:13:52 PM 39.5575 -108.6714 267° West 355 409 36,000 49 Climbing Denver Center
Mon 07:14:53 PM 39.5500 -108.7986 266° West 361 415 36,000  Level Denver Center
Mon 07:15:55 PM 39.5439 -108.9258 266° West 365 420 36,000  Level Denver Center
Mon 07:16:56 PM 39.5364 -109.0725 266° West 365 420 36,000  Level Denver Center
Mon 07:17:58 PM 39.5297 -109.1994 266° West 368 423 36,000  Level Denver Center
Mon 07:19:00 PM 39.5219 -109.3467 266° West 366 421 36,000  Level Denver Center
Mon 07:20:01 PM 39.5147 -109.4736 266° West 369 425 36,000  Level Denver Center
Mon 07:20:58 PM 39.5078 -109.5994 266° West 365 420 36,000  Level Salt Lake Center
Mon 07:21:59 PM 39.5008 -109.7256 266° West 367 422 36,000  Level Salt Lake Center
Mon 07:23:06 PM 39.4919 -109.8714 266° West 365 420 36,000  Level Denver Center
Mon 07:24:07 PM 39.4836 -110.0189 266° West 368 423 36,000  Level Denver Center
Mon 07:25:04 PM 39.4681 -110.1467 261° West 373 429 36,000 -50 Level Salt Lake Center
Mon 07:26:06 PM 39.4478 -110.2767 259° West 384 442 35,900  Descending Salt Lake Center
Mon 07:28:14 PM 39.4025 -110.5525 258° West 381 438 36,000 32 Climbing Denver Center
Mon 07:29:15 PM 39.3856 -110.6583 258° West 378 435 36,000  Level Denver Center
Mon 07:30:16 PM 39.3611 -110.8058 258° West 376 433 36,000  Level Denver Center
Mon 07:31:14 PM 39.3378 -110.9558 259° West 381 438 36,000  Level Salt Lake Center
Mon 07:32:16 PM 39.3133 -111.1089 258° West 388 447 36,000  Level Salt Lake Center
Mon 07:33:17 PM 39.2917 -111.2411 258° West 393 452 36,000  Level Salt Lake Center
Mon 07:34:19 PM 39.2694 -111.3761 258° West 392 451 36,000  Level Salt Lake Center
Mon 07:35:20 PM 39.2464 -111.5106 258° West 387 445 36,000  Level Salt Lake Center
Mon 07:36:22 PM 39.2236 -111.6447 258° West 377 434 36,000  Level Salt Lake Center
Mon 07:37:24 PM 39.2011 -111.7753 258° West 374 430 36,000  Level Salt Lake Center
Mon 07:38:25 PM 39.1742 -111.9322 258° West 375 432 36,000  Level Salt Lake Center
Mon 07:39:27 PM 39.1514 -112.0628 257° West 376 433 36,000  Level Salt Lake Center
Mon 07:40:29 PM 39.1278 -112.1947 257° West 378 435 36,000  Level Salt Lake Center
Mon 07:41:30 PM 39.1039 -112.3258 257° West 379 436 36,000  Level Salt Lake Center
Mon 07:42:32 PM 39.0814 -112.4561 257° West 375 432 36,000  Level Salt Lake Center
Mon 07:43:34 PM 39.0575 -112.5864 257° West 375 432 36,000  Level Salt Lake Center
Mon 07:44:35 PM 39.0344 -112.7197 257° West 381 438 36,000  Level Salt Lake Center
Mon 07:45:37 PM 39.0058 -112.8806 257° West 384 442 36,000  Level Salt Lake Center
Mon 07:46:39 PM 38.9819 -113.0125 257° West 383 441 36,000  Level Salt Lake Center
Mon 07:47:40 PM 38.9572 -113.1419 256° West 378 435 36,000  Level Salt Lake Center
Mon 07:48:42 PM 38.9333 -113.2769 257° West 384 442 36,000  Level Salt Lake Center
Mon 07:49:44 PM 38.9078 -113.4114 256° West 388 447 36,000  Level Salt Lake Center
Mon 07:50:45 PM 38.8828 -113.5433 256° West 384 442 36,000 -49 Level Salt Lake Center
Mon 07:51:47 PM 38.8586 -113.6758 257° West 384 442 35,900  Descending Salt Lake Center
Mon 07:52:49 PM 38.8278 -113.8361 256° West 386 444 36,000  Climbing Salt Lake Center
Mon 07:53:50 PM 38.8025 -113.9700 256° West 388 447 35,900  Descending Salt Lake Center
Mon 07:54:52 PM 38.7767 -114.1025 256° West 385 443 36,000 49 Climbing Salt Lake Center
Mon 07:55:53 PM 38.7508 -114.2356 256° West 387 445 36,000  Level Salt Lake Center
Mon 07:56:55 PM 38.7253 -114.3694 256° West 388 447 36,000  Level Salt Lake Center
Mon 07:57:57 PM 38.6997 -114.5019 256° West 387 445 36,000 -49 Level Salt Lake Center
Mon 07:58:58 PM 38.6733 -114.6367 256° West 392 451 35,900 -49 Descending Salt Lake Center
Mon 08:00:00 PM 38.6406 -114.7975 255° West 392 451 35,900 49 Level Salt Lake Center
Mon 08:01:01 PM 38.6131 -114.9336 256° West 396 456 36,000 49 Climbing Salt Lake Center
Mon 08:02:03 PM 38.5844 -115.0719 255° West 402 463 36,000 -48 Level Salt Lake Center
Mon 08:03:05 PM 38.5569 -115.2069 255° West 396 456 35,900  Descending Salt Lake Center
Mon 08:04:06 PM 38.5258 -115.3592 255° West 397 457 36,000 49 Climbing Salt Lake Center
Mon 08:05:08 PM 38.5017 -115.4775 255° West 403 464 36,000  Level Salt Lake Center
Mon 08:06:09 PM 38.4672 -115.6447 255° West 406 467 36,000  Level Salt Lake Center
Mon 08:07:11 PM 38.4386 -115.7833 255° West 405 466 36,000  Level Salt Lake Center
Mon 08:08:13 PM 38.4086 -115.9217 255° West 405 466 36,000  Level Salt Lake Center
Mon 08:09:14 PM 38.3783 -116.0594 254° West 403 464 36,000  Level Salt Lake Center
Mon 08:10:16 PM 38.3489 -116.1986 255° West 405 466 36,000  Level Salt Lake Center
Mon 08:11:17 PM 38.3197 -116.3378 255° West 407 468 36,000  Level Salt Lake Center
Mon 08:12:12 PM 38.2886 -116.4786 254° West 412 474 36,000  Level Oakland Center
Mon 08:13:13 PM 38.2606 -116.6183 256° West 408 470 36,000  Level Oakland Center
Mon 08:14:15 PM 38.2339 -116.7603 257° West 413 475 36,000  Level Oakland Center
Mon 08:15:24 PM 38.2208 -116.9331 265° West 411 473 36,000  Level Salt Lake Center
Mon 08:16:25 PM 38.2097 -117.0792 265° West 415 478 36,000  Level Salt Lake Center
Mon 08:17:18 PM 38.1997 -117.2144 265° West 412 474 36,000  Level Oakland Center
Mon 08:18:19 PM 38.1867 -117.3617 264° West 416 479 36,000  Level Oakland Center
Mon 08:19:21 PM 38.1750 -117.5072 264° West 421 484 36,000  Level Oakland Center
Mon 08:20:22 PM 38.1628 -117.6508 264° West 412 474 36,000  Level Oakland Center
Mon 08:21:23 PM 38.1492 -117.7969 263° West 414 476 36,000  Level Oakland Center
Mon 08:22:24 PM 38.1367 -117.9439 264° West 417 480 36,000  Level Oakland Center
Mon 08:27:47 PM 38.0640 -118.7430 264° West 420 483 36,000  Level FlightAware ADS-B
Mon 08:28:27 PM 38.0560 -118.8270 263° West 420 483 36,000  Level FlightAware ADS-B
Mon 08:29:07 PM 38.0480 -118.9100 263° West 420 483 36,000  Level FlightAware ADS-B
Mon 08:29:52 PM 38.0340 -119.0590 263° West 423 487 36,000  Level FlightAware ADS-B
Mon 08:30:47 PM 38.0200 -119.2030 263° West 423 487 36,000  Level FlightAware ADS-B
Mon 08:31:27 PM 38.0100 -119.3040 263° West 425 489 36,000  Level FlightAware ADS-B
Mon 08:32:07 PM 38.0000 -119.3970 262° West 427 491 36,000 -282 Level FlightAware ADS-B
Mon 08:32:52 PM 37.9880 -119.5140 263° West 433 498 35,600 -776 Descending FlightAware ADS-B
Mon 08:33:32 PM 37.9770 -119.6140 262° West 434 499 34,900 -988 Descending FlightAware ADS-B
Mon 08:34:17 PM 37.9660 -119.7260 263° West 427 491 34,200 -988 Descending FlightAware ADS-B
Mon 08:34:57 PM 37.9550 -119.8290 262° West 422 486 33,500 -988 Descending FlightAware ADS-B
Mon 08:35:42 PM 37.9440 -119.9340 262° West 418 481 32,800 -960 Descending FlightAware ADS-B
Mon 08:36:12 PM 37.9390 -120.0050 265° West 413 475 32,300 -988 Descending FlightAware ADS-B
Mon 08:37:07 PM 37.9440 -120.1450 273° West 437 503 31,400 -971 Descending FlightAware ADS-B
Mon 08:37:57 PM 37.9500 -120.2720 273° West 438 504 30,600 -947 Descending FlightAware ADS-B
Mon 08:38:42 PM 37.9560 -120.3840 274° West 433 498 29,900 -2,215 Descending FlightAware ADS-B
Mon 08:40:07 PM 37.9340 -120.6000 263° West 450 518 25,800 -3,024 Descending FlightAware ADS-B
Mon 08:40:47 PM 37.9170 -120.7020 258° West 446 513 23,600 -3,459 Descending FlightAware ADS-B
Mon 08:41:32 PM 37.8950 -120.8230 257° West 441 507 20,900 -3,176 Descending FlightAware ADS-B
Mon 08:42:12 PM 37.8780 -120.9220 258° West 426 490 19,100 -2,541 Descending FlightAware ADS-B
Mon 08:42:57 PM 37.8600 -121.0240 257° West 394 453 17,300 -2,753 Descending FlightAware ADS-B
Mon 08:43:37 PM 37.8430 -121.1140 257° West 380 437 15,200 -2,325 Descending FlightAware ADS-B
Mon 08:44:17 PM 37.8260 -121.1900 254° West 381 438 14,200 -1,624 Descending FlightAware ADS-B
Mon 08:45:02 PM 37.7900 -121.2940 246° West 380 437 12,900 -1,765 Descending FlightAware ADS-B
Mon 08:45:42 PM 37.7610 -121.3750 246° West 376 433 11,700 -1,624 Descending FlightAware ADS-B
Mon 08:46:27 PM 37.7300 -121.4620 246° West 353 406 10,600 -1,059 Descending FlightAware ADS-B
Mon 08:47:07 PM 37.7040 -121.5350 246° West 318 366 10,200 -450 Descending FlightAware ADS-B
Mon 08:47:47 PM 37.6820 -121.5970 246° West 283 326 10,000 -1,029 Descending FlightAware ADS-B
Mon 08:48:17 PM 37.6660 -121.6420 246° West 282 325 9,000 -2,000 Descending FlightAware ADS-B
Mon 08:48:47 PM 37.6490 -121.6890 245° Southwest 291 335 8,000 -1,745 Descending FlightAware ADS-B
Mon 08:49:12 PM 37.6360 -121.7290 248° West 286 329 7,400 -1,080 Descending FlightAware ADS-B
Mon 08:49:37 PM 37.6230 -121.7660 246° West 275 316 7,100 -327 Descending FlightAware ADS-B
Mon 08:50:07 PM 37.6080 -121.8080 246° West 261 300 7,100 -267 Level FlightAware ADS-B
Mon 08:50:22 PM 37.6020 -121.8270 248° West 257 296 6,900 -1,200 Descending FlightAware ADS-B
Mon 08:50:52 PM 37.5870 -121.8700 246° West 245 282 6,200 -1,309 Descending FlightAware ADS-B
Mon 08:51:17 PM 37.5760 -121.9020 247° West 233 268 5,700 -1,527 Descending FlightAware ADS-B
Mon 08:51:47 PM 37.5650 -121.9350 247° West 226 260 4,800 -1,600 Descending FlightAware ADS-B
Mon 08:52:17 PM 37.5540 -121.9760 251° West 223 257 4,100 -1,091 Descending FlightAware ADS-B
Mon 08:52:42 PM 37.5620 -122.0050 289° West 212 244 3,800 -750 Descending FlightAware ADS-B
Mon 08:52:57 PM 37.5690 -122.0160 309° West 207 238 3,600 -800 Descending FlightAware ADS-B
Mon 08:53:27 PM 37.5890 -122.0460 310° West 191 220 3,200 -764 Descending FlightAware ADS-B
Mon 08:53:52 PM 37.6030 -122.0660 311° West 189 217 2,900 -873 Descending FlightAware ADS-B
Mon 08:54:22 PM 37.6190 -122.0910 309° West 185 213 2,400 -873 Descending FlightAware ADS-B
Mon 08:54:47 PM 37.6330 -122.1120 310° West 168 193 2,100 -720 Descending FlightAware ADS-B
Mon 08:55:12 PM 37.6430 -122.1270 310° West 156 180 1,800 -764 Descending FlightAware ADS-B
Mon 08:55:42 PM 37.6570 -122.1480 310° West 132 152 1,400 -750 Descending FlightAware ADS-B
Mon 08:55:52 PM 37.6600 -122.1520 313° West 126 145 1,300 -171 Descending FlightAware ADS-B
Mon 08:56:17 PM 37.6690 -122.1670 307° West 126 145 1,300 -658 Level FlightAware ADS-B
Mon 08:57:05 PM 37.6850 -122.1903 307° West 132 152 500 -365 Descending Oakland Center
Mon 08:59:18 PM 37.7167 -122.2333 313° West 120 138 200 -135 Descending Northern Cal TRACON

Login

Don't have an account? Register now (free) for customized features, flight alerts, and more!